Time;durP1;ratioP1;P1;durP2;ratioP2;P2;SDS_P1;SDS_P2;PMS_P1;PMS_P2;Temp;Humidity;BMP_temperature;BMP_pressure;BME280_temperature;BME280_humidity;BME280_pressure;Samples;Min_cycle;Max_cycle;Signal;HPM_P1;HPM_P2
2023/06/01 00:01:43;;;;;;;11.95;3.83;;;12.30;99.90;;;;;;6189281;23;20742;-69
2023/06/01 00:04:09;;;;;;;7.22;3.90;;;12.30;99.90;;;;;;6187633;23;20051;-68
2023/06/01 00:06:35;;;;;;;12.07;4.13;;;12.40;99.90;;;;;;6189603;23;20032;-68
2023/06/01 00:09:02;;;;;;;9.38;4.20;;;12.30;99.90;;;;;;6187586;23;20016;-68
2023/06/01 00:11:28;;;;;;;11.43;4.70;;;12.30;99.90;;;;;;6189557;23;20017;-69
2023/06/01 00:13:54;;;;;;;12.63;4.15;;;12.30;99.90;;;;;;6162069;23;20898;-68
2023/06/01 00:16:20;;;;;;;12.52;4.47;;;12.30;99.90;;;;;;6188865;23;20035;-68
2023/06/01 00:18:45;;;;;;;9.88;4.57;;;12.20;99.90;;;;;;6189342;23;20025;-68
2023/06/01 00:21:14;;;;;;;13.60;4.10;;;12.30;99.90;;;;;;6161400;23;20486;-69
2023/06/01 00:23:40;;;;;;;9.32;4.18;;;12.30;99.90;;;;;;6189880;23;20017;-68
2023/06/01 00:26:07;;;;;;;10.68;4.60;;;12.30;99.90;;;;;;6186357;23;20024;-68
2023/06/01 00:28:34;;;;;;;13.88;4.95;;;12.30;99.90;;;;;;6189742;23;20021;-70
2023/06/01 00:31:00;;;;;;;11.90;3.65;;;12.30;99.90;;;;;;6187903;23;20116;-68
2023/06/01 00:33:26;;;;;;;13.73;5.28;;;12.20;99.90;;;;;;6188846;23;20332;-69
2023/06/01 00:35:52;;;;;;;10.25;4.20;;;12.20;99.90;;;;;;6188920;23;20021;-68
2023/06/01 00:38:18;;;;;;;10.10;5.00;;;12.20;99.90;;;;;;6187776;23;20095;-68
2023/06/01 00:40:43;;;;;;;10.40;4.18;;;12.30;99.90;;;;;;6189915;23;20021;-69
2023/06/01 00:43:10;;;;;;;11.60;4.10;;;12.20;99.90;;;;;;6187500;23;20013;-69
2023/06/01 00:45:37;;;;;;;11.15;4.00;;;12.30;99.90;;;;;;6163135;23;20027;-69
2023/06/01 00:48:03;;;;;;;7.97;4.18;;;12.20;99.90;;;;;;6187992;23;20052;-68
2023/06/01 00:50:30;;;;;;;12.35;4.40;;;12.20;99.90;;;;;;6188740;23;20032;-68
2023/06/01 00:52:57;;;;;;;7.10;4.20;;;12.20;99.90;;;;;;6188959;23;20391;-68
2023/06/01 00:55:23;;;;;;;9.02;3.88;;;12.20;99.90;;;;;;6187782;23;20024;-68
2023/06/01 00:57:50;;;;;;;10.93;4.10;;;12.20;99.90;;;;;;6189179;23;20025;-68
2023/06/01 01:00:17;;;;;;;11.02;4.50;;;12.20;99.90;;;;;;6187375;23;20052;-68
2023/06/01 01:02:51;;;;;;;12.23;5.10;;;12.20;99.90;;;;;;6189311;23;20024;-68
2023/06/01 01:05:17;;;;;;;11.38;4.10;;;12.20;99.90;;;;;;6161249;23;20024;-68
2023/06/01 01:07:58;;;;;;;12.27;4.50;;;12.20;99.90;;;;;;6188462;23;20017;-68
2023/06/01 01:10:39;;;;;;;16.23;5.10;;;12.10;99.90;;;;;;6189254;23;20525;-69
2023/06/01 01:13:04;;;;;;;10.45;4.40;;;12.10;99.90;;;;;;6187236;23;20044;-68
2023/06/01 01:15:43;;;;;;;7.70;4.35;;;12.10;99.90;;;;;;6189076;23;20028;-68
2023/06/01 01:18:17;;;;;;;11.80;5.13;;;12.10;99.90;;;;;;6187092;23;20021;-68
2023/06/01 01:20:48;;;;;;;13.20;5.55;;;12.10;99.90;;;;;;6188282;23;20092;-68
2023/06/01 01:23:38;;;;;;;13.90;5.13;;;12.10;99.90;;;;;;6190956;23;20088;-68
2023/06/01 01:26:34;;;;;;;13.27;5.55;;;12.10;99.90;;;;;;6188732;23;20023;-68
2023/06/01 01:29:05;;;;;;;11.57;5.10;;;12.10;99.90;;;;;;6190607;23;20021;-68
2023/06/01 01:31:33;;;;;;;11.82;4.88;;;12.00;99.90;;;;;;6191325;23;20031;-68
2023/06/01 01:34:02;;;;;;;11.13;4.88;;;12.00;99.90;;;;;;6191409;23;20021;-68
2023/06/01 01:36:28;;;;;;;18.27;5.03;;;12.00;99.90;;;;;;6197807;23;20020;-68
2023/06/01 01:38:54;;;;;;;9.30;4.57;;;12.10;99.90;;;;;;6196694;23;20025;-69
2023/06/01 01:41:21;;;;;;;12.23;4.90;;;12.00;99.90;;;;;;6201114;23;20322;-68
2023/06/01 01:43:48;;;;;;;9.30;4.05;;;12.00;99.90;;;;;;6198419;23;20020;-69
2023/06/01 01:46:30;;;;;;;10.88;4.82;;;12.00;99.90;;;;;;6199372;23;20013;-68
2023/06/01 01:48:59;;;;;;;11.52;5.28;;;12.00;99.90;;;;;;6196831;23;20017;-68
2023/06/01 01:51:49;;;;;;;10.27;4.80;;;11.90;99.90;;;;;;6194055;23;20021;-67
2023/06/01 01:54:17;;;;;;;9.27;4.70;;;11.90;99.90;;;;;;6191957;23;20036;-68
2023/06/01 01:56:46;;;;;;;9.57;5.10;;;11.90;99.90;;;;;;6189627;23;20021;-69
2023/06/01 01:59:12;;;;;;;11.48;4.68;;;12.00;99.90;;;;;;6189856;23;20016;-68
2023/06/01 02:01:44;;;;;;;10.95;4.53;;;11.90;99.90;;;;;;6163957;23;20047;-68
2023/06/01 02:04:10;;;;;;;13.15;4.72;;;12.00;99.90;;;;;;6188970;23;20065;-68
2023/06/01 02:06:36;;;;;;;12.60;4.75;;;11.90;99.90;;;;;;6191057;23;20028;-68
2023/06/01 02:09:07;;;;;;;12.35;4.65;;;12.00;99.90;;;;;;6188651;23;20072;-68
2023/06/01 02:11:34;;;;;;;14.55;5.32;;;12.00;99.90;;;;;;6190811;23;20014;-68
2023/06/01 02:13:59;;;;;;;15.80;5.80;;;11.90;99.90;;;;;;6189539;23;20021;-68
2023/06/01 02:16:25;;;;;;;10.40;4.72;;;11.90;99.90;;;;;;6189322;23;20017;-68
2023/06/01 02:18:51;;;;;;;9.38;4.50;;;11.90;99.90;;;;;;6190770;23;20025;-68
2023/06/01 02:21:17;;;;;;;10.65;4.60;;;11.80;99.90;;;;;;6189063;23;20024;-68
2023/06/01 02:23:46;;;;;;;11.73;5.97;;;11.90;99.90;;;;;;6191132;23;20021;-68
2023/06/01 02:26:12;;;;;;;12.60;4.72;;;11.90;99.90;;;;;;6161815;23;20021;-68
2023/06/01 02:28:40;;;;;;;8.45;4.15;;;11.90;99.90;;;;;;6190670;23;20064;-68
2023/06/01 02:31:07;;;;;;;7.95;4.40;;;11.90;99.90;;;;;;6189525;23;20020;-68
2023/06/01 02:33:33;;;;;;;7.40;4.22;;;11.90;99.90;;;;;;6189932;23;20478;-68
2023/06/01 02:35:59;;;;;;;18.50;5.40;;;11.90;99.90;;;;;;6190021;23;20021;-68
2023/06/01 02:38:26;;;;;;;11.68;4.32;;;11.90;99.90;;;;;;6188857;23;20084;-70
2023/06/01 02:40:52;;;;;;;10.35;4.38;;;11.90;99.90;;;;;;6190722;23;20065;-68
2023/06/01 02:43:17;;;;;;;8.68;4.00;;;11.90;99.90;;;;;;6188637;23;20516;-68
2023/06/01 02:45:43;;;;;;;10.43;4.28;;;11.90;99.90;;;;;;6190232;23;20047;-69
2023/06/01 02:48:09;;;;;;;10.25;3.67;;;11.90;99.90;;;;;;6189241;23;20389;-68
2023/06/01 02:50:35;;;;;;;9.23;4.38;;;11.90;99.90;;;;;;6189509;23;20021;-69
2023/06/01 02:53:01;;;;;;;11.98;5.47;;;11.90;99.90;;;;;;6190630;23;20021;-69
2023/06/01 02:55:27;;;;;;;9.00;4.10;;;11.90;99.90;;;;;;6189139;23;20017;-68
2023/06/01 02:57:53;;;;;;;9.63;4.55;;;11.90;99.90;;;;;;6164409;23;20017;-69
2023/06/01 03:00:18;;;;;;;11.93;5.00;;;11.80;99.90;;;;;;6188523;23;20021;-69
2023/06/01 03:02:47;;;;;;;9.77;4.93;;;11.80;99.90;;;;;;6190112;23;20017;-69
2023/06/01 03:05:14;;;;;;;13.10;4.13;;;11.70;99.90;;;;;;6188612;23;20052;-68
2023/06/01 03:07:43;;;;;;;10.25;5.00;;;11.70;99.90;;;;;;6189360;23;20021;-69
2023/06/01 03:10:10;;;;;;;11.88;5.20;;;11.70;99.90;;;;;;6189613;23;20013;-68
2023/06/01 03:12:36;;;;;;;8.40;4.32;;;11.70;99.90;;;;;;6188325;23;20035;-69
2023/06/01 03:15:03;;;;;;;9.57;4.50;;;11.60;99.90;;;;;;6189664;23;20447;-68
2023/06/01 03:17:29;;;;;;;6.95;4.28;;;11.60;99.90;;;;;;6187808;23;20092;-69
2023/06/01 03:19:57;;;;;;;14.02;5.05;;;11.70;99.90;;;;;;6189913;23;20321;-68
2023/06/01 03:22:22;;;;;;;9.48;4.97;;;11.60;99.90;;;;;;6188367;23;20017;-69
2023/06/01 03:24:52;;;;;;;6.07;3.83;;;11.60;99.90;;;;;;6188962;23;20103;-69
2023/06/01 03:27:19;;;;;;;16.50;5.10;;;11.60;99.90;;;;;;6196060;23;20048;-69
2023/06/01 03:29:46;;;;;;;7.38;4.93;;;11.60;99.90;;;;;;6197041;23;20411;-69
2023/06/01 03:32:13;;;;;;;9.43;6.63;;;11.70;99.90;;;;;;6195249;23;20021;-68
2023/06/01 03:34:40;;;;;;;12.10;4.53;;;11.70;99.90;;;;;;6188035;23;20017;-68
2023/06/01 03:37:07;;;;;;;14.15;5.68;;;11.70;99.90;;;;;;6189513;23;20459;-68
2023/06/01 03:39:34;;;;;;;8.73;4.15;;;11.70;99.90;;;;;;6188007;23;20052;-68
2023/06/01 03:42:00;;;;;;;14.32;4.43;;;11.70;99.90;;;;;;6188822;23;20013;-68
2023/06/01 03:44:26;;;;;;;11.93;5.50;;;11.70;99.90;;;;;;6188730;23;20021;-69
2023/06/01 03:46:52;;;;;;;12.55;4.93;;;11.70;99.90;;;;;;6187692;23;20019;-69
2023/06/01 03:49:18;;;;;;;8.55;5.13;;;11.70;99.90;;;;;;6189610;23;20695;-71
2023/06/01 03:51:44;;;;;;;9.45;4.45;;;11.70;99.90;;;;;;6187768;23;20021;-68
2023/06/01 03:54:12;;;;;;;9.43;3.97;;;11.80;99.90;;;;;;6189389;23;20028;-68
2023/06/01 03:56:38;;;;;;;12.13;4.13;;;11.70;99.90;;;;;;6187858;23;20024;-69
2023/06/01 03:59:04;;;;;;;8.40;4.20;;;11.80;99.90;;;;;;6188581;23;20021;-69
2023/06/01 04:01:30;;;;;;;12.45;4.78;;;11.70;99.90;;;;;;6188484;23;20632;-68
2023/06/01 04:03:56;;;;;;;10.45;4.38;;;11.70;99.90;;;;;;6188037;23;20089;-69
2023/06/01 04:06:23;;;;;;;9.50;4.13;;;11.70;99.90;;;;;;6189653;23;20052;-68
2023/06/01 04:08:55;;;;;;;9.88;4.32;;;11.70;99.90;;;;;;6187327;23;20025;-69
2023/06/01 04:11:22;;;;;;;9.88;4.13;;;11.70;99.90;;;;;;6189256;23;20087;-69
2023/06/01 04:13:48;;;;;;;9.75;4.05;;;11.70;99.90;;;;;;6187525;23;20021;-69
2023/06/01 04:16:15;;;;;;;8.68;4.55;;;11.70;99.90;;;;;;6162128;23;20017;-68
2023/06/01 04:18:41;;;;;;;8.63;4.47;;;11.70;99.90;;;;;;6162269;23;20063;-70
2023/06/01 04:21:08;;;;;;;9.73;4.07;;;11.70;99.90;;;;;;6187575;23;20125;-68
2023/06/01 04:23:35;;;;;;;10.20;4.55;;;11.80;99.90;;;;;;6189596;23;20028;-68
2023/06/01 04:26:02;;;;;;;7.35;4.55;;;11.80;99.90;;;;;;6187137;23;20052;-68
2023/06/01 04:28:28;;;;;;;12.23;4.38;;;11.80;99.90;;;;;;6189213;23;20048;-68
2023/06/01 04:30:55;;;;;;;8.15;4.72;;;11.70;99.90;;;;;;6188028;23;20017;-68
2023/06/01 04:33:22;;;;;;;6.93;4.75;;;11.80;99.90;;;;;;6188999;23;20479;-68
2023/06/01 04:35:48;;;;;;;9.18;5.90;;;11.80;99.90;;;;;;6189628;23;20091;-69
2023/06/01 04:38:16;;;;;;;11.85;4.35;;;11.80;99.90;;;;;;6188685;23;20086;-68
2023/06/01 04:40:44;;;;;;;9.20;4.68;;;11.80;99.90;;;;;;6165807;23;20017;-68
2023/06/01 04:43:11;;;;;;;10.88;5.07;;;11.80;99.90;;;;;;6194491;23;20052;-68
2023/06/01 04:45:38;;;;;;;9.00;4.50;;;11.80;99.90;;;;;;6194770;23;20075;-68
2023/06/01 04:48:08;;;;;;;14.95;5.88;;;11.80;99.90;;;;;;6190793;23;20093;-68
2023/06/01 04:50:37;;;;;;;7.22;4.40;;;11.80;99.90;;;;;;6192105;23;20028;-68
2023/06/01 04:53:03;;;;;;;8.43;4.22;;;11.80;99.90;;;;;;6190962;23;20013;-68
2023/06/01 04:55:30;;;;;;;9.82;4.10;;;11.80;99.90;;;;;;6186779;23;20024;-68
2023/06/01 04:57:56;;;;;;;7.30;4.05;;;11.80;99.90;;;;;;6189430;23;20025;-69
2023/06/01 05:00:22;;;;;;;7.85;4.40;;;11.80;99.90;;;;;;6186976;23;20056;-68
2023/06/01 05:02:49;;;;;;;7.95;3.83;;;11.80;99.90;;;;;;6189037;23;20455;-68
2023/06/01 05:05:15;;;;;;;8.93;4.05;;;11.80;99.90;;;;;;6161214;23;20045;-69
2023/06/01 05:07:42;;;;;;;8.45;3.90;;;11.80;99.90;;;;;;6162050;23;20028;-68
2023/06/01 05:10:09;;;;;;;8.45;3.58;;;11.80;99.90;;;;;;6188523;23;20028;-68
2023/06/01 05:12:36;;;;;;;8.15;3.38;;;11.80;99.90;;;;;;6187615;23;20130;-68
2023/06/01 05:15:06;;;;;;;11.82;3.90;;;11.80;99.90;;;;;;6189494;23;20017;-68
2023/06/01 05:17:32;;;;;;;11.20;3.72;;;11.80;99.90;;;;;;6187495;23;20109;-69
2023/06/01 05:19:58;;;;;;;7.38;3.25;;;11.80;99.90;;;;;;6189309;23;20079;-68
2023/06/01 05:22:24;;;;;;;11.02;3.67;;;11.70;99.90;;;;;;6187933;23;20068;-68
2023/06/01 05:24:50;;;;;;;10.00;3.60;;;11.80;99.90;;;;;;6188164;23;20024;-68
2023/06/01 05:27:16;;;;;;;7.85;4.03;;;11.70;99.90;;;;;;6162459;23;20025;-68
2023/06/01 05:29:42;;;;;;;7.47;3.67;;;11.80;99.90;;;;;;6187742;23;20470;-68
2023/06/01 05:32:09;;;;;;;10.15;3.63;;;11.70;99.90;;;;;;6189807;23;20021;-68
2023/06/01 05:34:35;;;;;;;9.27;3.53;;;11.70;99.90;;;;;;6187524;23;20020;-69
2023/06/01 05:37:01;;;;;;;17.70;4.85;;;11.70;99.90;;;;;;6140464;23;1177880;-68
2023/06/01 05:39:28;;;;;;;9.75;3.50;;;11.80;99.90;;;;;;6189496;23;20040;-69
2023/06/01 05:41:57;;;;;;;12.70;4.95;;;11.80;99.90;;;;;;6190744;23;20484;-69
2023/06/01 05:44:23;;;;;;;10.35;4.18;;;11.90;99.90;;;;;;6191147;23;20953;-69
2023/06/01 05:46:50;;;;;;;10.25;4.03;;;11.90;99.90;;;;;;6189509;23;20095;-69
2023/06/01 05:49:16;;;;;;;9.18;4.07;;;11.80;99.90;;;;;;6191359;23;20020;-69
2023/06/01 05:51:42;;;;;;;6.20;4.07;;;11.70;99.90;;;;;;6188856;23;20048;-69
2023/06/01 05:54:09;;;;;;;11.80;4.43;;;11.70;99.90;;;;;;6190517;23;20557;-68
2023/06/01 05:56:37;;;;;;;7.85;4.22;;;11.80;99.90;;;;;;6189202;23;20048;-68
2023/06/01 05:59:06;;;;;;;6.22;4.55;;;11.80;99.90;;;;;;6190402;23;20017;-68
2023/06/01 06:01:32;;;;;;;11.55;4.35;;;11.80;99.90;;;;;;6190590;23;20020;-68
2023/06/01 06:03:58;;;;;;;13.25;4.72;;;11.80;99.90;;;;;;6189089;23;20320;-68
2023/06/01 06:06:25;;;;;;;10.10;4.78;;;11.80;99.90;;;;;;6164475;23;20021;-69
2023/06/01 06:08:51;;;;;;;10.98;3.53;;;11.90;99.90;;;;;;6188322;23;20454;-69
2023/06/01 06:11:21;;;;;;;6.20;4.03;;;11.80;99.90;;;;;;6190587;23;20017;-68
2023/06/01 06:13:50;;;;;;;7.28;3.30;;;11.80;99.90;;;;;;6189091;23;20017;-68
2023/06/01 06:16:16;;;;;;;8.05;3.72;;;11.80;99.90;;;;;;6188657;23;20025;-68
2023/06/01 06:18:42;;;;;;;7.32;3.50;;;11.80;99.90;;;;;;6189671;23;20088;-69
2023/06/01 06:21:09;;;;;;;10.75;3.88;;;11.90;99.90;;;;;;6188059;23;20020;-70
2023/06/01 06:23:34;;;;;;;6.30;3.72;;;11.90;99.90;;;;;;6190013;23;20059;-70
2023/06/01 06:26:01;;;;;;;12.63;3.03;;;11.80;99.90;;;;;;6188057;23;20032;-69
2023/06/01 06:28:27;;;;;;;6.60;3.70;;;11.80;99.90;;;;;;6190413;23;20095;-68
2023/06/01 06:30:53;;;;;;;9.10;3.65;;;11.90;99.90;;;;;;6188614;23;20520;-67
2023/06/01 06:33:19;;;;;;;8.35;3.45;;;11.90;99.90;;;;;;6190051;23;20051;-68
2023/06/01 06:35:44;;;;;;;12.98;4.20;;;11.90;99.90;;;;;;6189690;23;20024;-68
2023/06/01 06:38:13;;;;;;;8.88;4.13;;;11.90;99.90;;;;;;6189007;23;20029;-68
2023/06/01 06:40:38;;;;;;;14.40;5.55;;;12.00;99.90;;;;;;6190617;23;20087;-67
2023/06/01 06:43:04;;;;;;;7.68;3.60;;;12.00;99.90;;;;;;6188946;23;20056;-67
2023/06/01 06:45:30;;;;;;;5.80;3.40;;;12.10;99.90;;;;;;6190919;23;20025;-67
2023/06/01 06:47:56;;;;;;;6.55;3.85;;;12.10;99.90;;;;;;6188680;23;20021;-68
2023/06/01 06:50:21;;;;;;;5.90;2.88;;;12.10;99.90;;;;;;6190353;23;20017;-68
2023/06/01 06:52:47;;;;;;;5.85;2.80;;;12.10;99.90;;;;;;6189515;23;20415;-67
2023/06/01 06:55:13;;;;;;;7.00;3.58;;;12.20;99.90;;;;;;6189471;23;20021;-67
2023/06/01 06:57:39;;;;;;;6.40;2.80;;;12.20;99.90;;;;;;6190451;23;20024;-68
2023/06/01 07:00:14;;;;;;;5.07;2.88;;;12.20;99.90;;;;;;6188620;23;20021;-68
2023/06/01 07:02:46;;;;;;;5.43;3.33;;;12.20;99.90;;;;;;6164197;23;20013;-68
2023/06/01 07:05:11;;;;;;;9.65;3.60;;;12.20;99.90;;;;;;6162282;23;20045;-68
2023/06/01 07:07:38;;;;;;;10.55;3.83;;;12.30;99.90;;;;;;6162947;23;20035;-68
2023/06/01 07:10:05;;;;;;;7.68;3.55;;;12.30;99.90;;;;;;6189657;23;20681;-67
2023/06/01 07:12:31;;;;;;;9.05;3.40;;;12.30;99.90;;;;;;6188474;23;20029;-68
2023/06/01 07:14:57;;;;;;;4.95;3.80;;;12.40;99.90;;;;;;6190046;23;20020;-68
2023/06/01 07:17:23;;;;;;;10.13;3.60;;;12.40;99.90;;;;;;6187822;23;20056;-68
2023/06/01 07:19:48;;;;;;;6.30;3.17;;;12.40;99.90;;;;;;6189693;23;20028;-67
2023/06/01 07:22:14;;;;;;;7.30;3.50;;;12.40;99.90;;;;;;6189654;23;20016;-67
2023/06/01 07:24:40;;;;;;;6.55;4.10;;;12.50;99.90;;;;;;6164100;23;20021;-67
2023/06/01 07:27:07;;;;;;;8.35;3.00;;;12.50;99.90;;;;;;6193470;23;20021;-68
2023/06/01 07:29:33;;;;;;;6.22;2.88;;;12.40;99.90;;;;;;6196692;23;20016;-68
2023/06/01 07:31:59;;;;;;;4.70;2.80;;;12.40;99.90;;;;;;6199612;23;20021;-75
2023/06/01 07:34:25;;;;;;;4.90;2.78;;;12.40;99.90;;;;;;6147170;23;20020;-68
2023/06/01 07:36:51;;;;;;;4.82;2.90;;;12.50;99.90;;;;;;6169057;23;20028;-67
2023/06/01 07:39:17;;;;;;;6.78;2.60;;;12.50;99.90;;;;;;6192163;23;20036;-67
2023/06/01 07:41:46;;;;;;;4.38;2.83;;;12.60;99.90;;;;;;6200452;23;20100;-68
2023/06/01 07:44:18;;;;;;;4.65;2.63;;;12.70;99.90;;;;;;6200181;23;20075;-67
2023/06/01 07:46:44;;;;;;;5.43;2.97;;;12.60;99.90;;;;;;6171623;23;20051;-67
2023/06/01 07:49:14;;;;;;;4.07;2.83;;;12.60;99.90;;;;;;6198657;23;20025;-67
2023/06/01 07:51:41;;;;;;;3.50;2.47;;;12.70;99.90;;;;;;6193835;23;20033;-67
2023/06/01 07:54:07;;;;;;;11.35;3.53;;;12.70;99.90;;;;;;6166673;23;20021;-67
2023/06/01 07:56:34;;;;;;;9.00;3.38;;;12.80;99.90;;;;;;6189319;23;20027;-67
2023/06/01 07:59:00;;;;;;;8.65;3.55;;;12.80;99.90;;;;;;6189476;23;20088;-67
2023/06/01 08:01:26;;;;;;;8.73;3.83;;;12.80;99.90;;;;;;6188263;23;20052;-67
2023/06/01 08:03:52;;;;;;;12.75;3.58;;;12.90;99.90;;;;;;6187501;23;20025;-67
2023/06/01 08:06:18;;;;;;;7.25;2.80;;;12.90;99.90;;;;;;6189517;23;20067;-67
2023/06/01 08:08:45;;;;;;;5.07;3.00;;;12.90;99.90;;;;;;6187205;23;20083;-67
2023/06/01 08:11:11;;;;;;;6.55;2.78;;;13.00;99.90;;;;;;6163006;23;20027;-67
2023/06/01 08:13:37;;;;;;;12.00;3.95;;;13.00;99.90;;;;;;6187431;23;20056;-67
2023/06/01 08:16:05;;;;;;;6.47;2.50;;;13.00;99.90;;;;;;6189797;23;20019;-66
2023/06/01 08:18:31;;;;;;;6.03;2.42;;;13.10;99.90;;;;;;6188560;23;20052;-67
2023/06/01 08:20:57;;;;;;;3.33;2.72;;;13.10;99.90;;;;;;6188070;23;20025;-67
2023/06/01 08:23:23;;;;;;;4.97;2.40;;;13.10;99.90;;;;;;6189351;23;20036;-68
2023/06/01 08:25:51;;;;;;;4.53;2.40;;;13.00;99.90;;;;;;6191188;23;20017;-67
2023/06/01 08:28:17;;;;;;;3.85;2.22;;;13.10;99.90;;;;;;6194624;23;20056;-68
2023/06/01 08:30:43;;;;;;;5.57;2.70;;;13.10;99.90;;;;;;6193662;23;20249;-67
2023/06/01 08:33:11;;;;;;;2.63;2.10;;;13.20;99.90;;;;;;6165709;23;20020;-67
2023/06/01 08:35:37;;;;;;;5.70;2.15;;;13.10;99.90;;;;;;6188059;23;20068;-67
2023/06/01 08:38:05;;;;;;;3.88;2.42;;;13.20;99.90;;;;;;6187891;23;20025;-67
2023/06/01 08:40:35;;;;;;;3.08;2.13;;;13.30;99.90;;;;;;6162336;23;20021;-67
2023/06/01 08:43:16;;;;;;;4.38;2.60;;;13.40;99.90;;;;;;6187269;23;20017;-68
2023/06/01 08:45:44;;;;;;;4.68;2.92;;;13.40;99.90;;;;;;6188961;23;20040;-68
2023/06/01 08:48:20;;;;;;;6.15;2.78;;;13.60;99.90;;;;;;6187205;23;20020;-67
2023/06/01 08:50:50;;;;;;;5.75;2.40;;;13.70;99.90;;;;;;6188056;23;20087;-68
2023/06/01 08:53:21;;;;;;;4.57;2.45;;;13.80;99.90;;;;;;6189148;23;20024;-67
2023/06/01 08:55:53;;;;;;;5.57;2.22;;;13.70;99.90;;;;;;6187087;23;20045;-67
2023/06/01 08:58:19;;;;;;;4.43;2.83;;;13.60;99.90;;;;;;6188936;23;20021;-68
2023/06/01 09:00:50;;;;;;;3.22;2.47;;;13.80;99.90;;;;;;6187431;23;20021;-67
2023/06/01 09:03:16;;;;;;;5.07;2.58;;;13.80;99.90;;;;;;6188623;23;20072;-67
2023/06/01 09:05:42;;;;;;;8.77;2.50;;;13.80;99.90;;;;;;6161510;23;20025;-68
2023/06/01 09:08:09;;;;;;;3.28;1.60;;;13.70;99.90;;;;;;6187712;23;20031;-67
2023/06/01 09:10:37;;;;;;;3.15;1.60;;;13.70;99.90;;;;;;6189001;23;20041;-67
2023/06/01 09:13:03;;;;;;;2.55;1.58;;;13.80;99.90;;;;;;6187192;23;20088;-68
2023/06/01 09:15:29;;;;;;;2.15;1.50;;;13.80;99.90;;;;;;6189067;23;20036;-67
2023/06/01 09:18:13;;;;;;;5.40;2.30;;;13.90;99.90;;;;;;6186978;23;20031;-67
2023/06/01 09:20:40;;;;;;;4.00;2.10;;;14.00;99.90;;;;;;6188482;23;20403;-67
2023/06/01 09:23:06;;;;;;;3.80;1.70;;;14.10;99.90;;;;;;6189051;23;20069;-68
2023/06/01 09:25:33;;;;;;;4.78;1.67;;;14.10;99.90;;;;;;6186176;23;20021;-75
2023/06/01 09:28:00;;;;;;;4.75;2.30;;;14.10;99.90;;;;;;6137551;23;20021;-68
2023/06/01 09:30:40;;;;;;;3.78;2.00;;;14.00;99.90;;;;;;6159513;23;20138;-68
2023/06/01 09:33:10;;;;;;;2.30;1.80;;;14.30;99.90;;;;;;6188592;23;20013;-68
2023/06/01 09:35:46;;;;;;;4.32;2.30;;;14.40;99.90;;;;;;6137112;23;20075;-74
2023/06/01 09:38:21;;;;;;;5.10;2.20;;;14.60;99.90;;;;;;6160604;23;20439;-70
2023/06/01 09:40:57;;;;;;;4.10;1.90;;;14.60;99.90;;;;;;6189165;23;20060;-69
2023/06/01 09:43:22;;;;;;;2.50;1.55;;;14.70;99.90;;;;;;6136985;23;20017;-69
2023/06/01 09:46:13;;;;;;;4.80;2.45;;;14.60;99.90;;;;;;6163686;23;20035;-70
2023/06/01 09:48:44;;;;;;;2.75;1.80;;;14.30;99.90;;;;;;6163640;23;20025;-70
2023/06/01 09:51:29;;;;;;;5.82;1.90;;;14.60;99.90;;;;;;6162745;23;20029;-69
2023/06/01 09:53:55;;;;;;;4.45;1.45;;;14.80;99.90;;;;;;6164447;23;20021;-71
2023/06/01 09:56:21;;;;;;;2.63;1.40;;;14.80;99.90;;;;;;6161521;23;20025;-69
2023/06/01 09:58:47;;;;;;;2.00;1.70;;;14.60;99.90;;;;;;6190411;23;20113;-69
2023/06/01 10:01:15;;;;;;;5.20;1.92;;;14.60;99.90;;;;;;6162911;23;20017;-70
2023/06/01 10:03:42;;;;;;;2.47;1.65;;;14.40;99.90;;;;;;6162414;23;20028;-71
2023/06/01 10:06:12;;;;;;;2.92;1.83;;;14.40;99.90;;;;;;6163954;23;20299;-69
2023/06/01 10:08:38;;;;;;;3.60;1.73;;;14.30;99.90;;;;;;6189031;23;20027;-69
2023/06/01 10:11:06;;;;;;;3.30;1.75;;;14.50;99.90;;;;;;6164262;23;20544;-69
2023/06/01 10:13:32;;;;;;;1.60;1.50;;;14.50;99.90;;;;;;6162115;23;20339;-69
2023/06/01 10:15:58;;;;;;;2.65;1.73;;;14.40;99.90;;;;;;6189896;23;20075;-69
2023/06/01 10:18:24;;;;;;;1.45;1.25;;;14.40;99.90;;;;;;6162798;23;20036;-70
2023/06/01 10:20:51;;;;;;;1.75;1.60;;;14.40;99.90;;;;;;6162867;23;20029;-69
2023/06/01 10:23:16;;;;;;;3.58;1.52;;;14.40;99.90;;;;;;6163934;23;20351;-70
2023/06/01 10:25:49;;;;;;;1.40;1.30;;;14.30;99.90;;;;;;6188310;23;20017;-69
2023/06/01 10:28:16;;;;;;;3.15;1.30;;;14.40;99.90;;;;;;6190616;23;20065;-69
2023/06/01 10:30:45;;;;;;;6.57;1.50;;;14.50;99.90;;;;;;6188820;23;20104;-69
2023/06/01 10:33:11;;;;;;;2.85;1.40;;;14.70;99.90;;;;;;6163325;23;20072;-69
2023/06/01 10:35:51;;;;;;;5.38;1.67;;;14.60;99.90;;;;;;6163028;23;20017;-69
2023/06/01 10:38:20;;;;;;;4.55;1.70;;;15.00;99.90;;;;;;6162287;23;20060;-69
2023/06/01 10:40:46;;;;;;;2.50;1.90;;;14.80;99.90;;;;;;6191269;23;20028;-70
2023/06/01 10:43:37;;;;;;;3.90;1.75;;;15.10;99.90;;;;;;6192647;23;20017;-70
2023/06/01 10:46:16;;;;;;;3.42;1.98;;;14.90;99.90;;;;;;6202578;23;20406;-70
2023/06/01 10:48:55;;;;;;;3.97;2.38;;;15.20;99.90;;;;;;6172977;23;20105;-70
2023/06/01 10:51:25;;;;;;;6.88;2.50;;;15.20;99.90;;;;;;6171416;23;20025;-70
2023/06/01 10:53:54;;;;;;;5.22;2.33;;;15.10;99.90;;;;;;6172226;23;20093;-69
2023/06/01 10:56:26;;;;;;;5.65;2.60;;;15.00;99.90;;;;;;6194886;23;20028;-69
2023/06/01 10:59:09;;;;;;;7.60;2.65;;;15.00;99.90;;;;;;6163861;23;20025;-70
2023/06/01 11:01:40;;;;;;;5.75;2.70;;;15.20;99.90;;;;;;6189970;23;20068;-70
2023/06/01 11:04:07;;;;;;;8.55;3.10;;;15.20;99.90;;;;;;6187362;23;20021;-70
2023/06/01 11:06:37;;;;;;;8.82;2.95;;;14.90;99.90;;;;;;6163533;23;20048;-69
2023/06/01 11:09:11;;;;;;;5.53;3.00;;;15.00;99.90;;;;;;6188195;23;20016;-72
2023/06/01 11:11:51;;;;;;;5.68;3.20;;;15.00;99.90;;;;;;6163697;23;20017;-69
2023/06/01 11:14:23;;;;;;;7.10;3.20;;;15.10;99.90;;;;;;6162686;23;20021;-71
2023/06/01 11:16:52;;;;;;;5.10;2.60;;;15.00;99.90;;;;;;6161862;23;20020;-70
2023/06/01 11:19:20;;;;;;;5.43;2.17;;;15.10;99.90;;;;;;6163819;23;20017;-69
2023/06/01 11:21:47;;;;;;;5.60;2.75;;;15.30;99.90;;;;;;6161876;23;20534;-70
2023/06/01 11:24:14;;;;;;;5.28;2.30;;;15.20;99.90;;;;;;6189891;23;20021;-70
2023/06/01 11:26:52;;;;;;;6.10;2.83;;;15.00;99.90;;;;;;6137991;23;20127;-70
2023/06/01 11:29:21;;;;;;;5.32;2.40;;;15.10;99.90;;;;;;6163335;23;20021;-69
2023/06/01 11:31:54;;;;;;;5.93;2.08;;;15.10;99.90;;;;;;6191324;23;20059;-71
2023/06/01 11:34:26;;;;;;;;;;;15.00;99.90;;;;;;6161526;23;20049;-70
2023/06/01 11:36:52;;;;;;;3.70;2.30;;;14.90;99.90;;;;;;6158820;23;19916;-72
2023/06/01 11:39:23;;;;;;;6.00;2.00;;;15.00;99.90;;;;;;6160113;23;20017;-70
2023/06/01 11:42:13;;;;;;;7.10;2.40;;;15.10;99.90;;;;;;6188345;23;20021;-71
2023/06/01 11:44:56;;;;;;;7.60;2.75;;;15.00;99.90;;;;;;6189167;23;20032;-71
2023/06/01 11:47:22;;;;;;;4.90;2.58;;;15.00;99.90;;;;;;6160706;23;20040;-72
2023/06/01 11:49:50;;;;;;;8.35;2.72;;;15.30;99.90;;;;;;6137626;23;20285;-71
2023/06/01 11:52:20;;;;;;;10.98;2.70;;;15.20;99.90;;;;;;6160736;23;20028;-71
2023/06/01 11:54:51;;;;;;;6.43;2.30;;;15.10;99.90;;;;;;6161761;23;20021;-73
2023/06/01 11:57:19;;;;;;;8.57;2.15;;;15.10;99.90;;;;;;6137134;23;20075;-71
2023/06/01 11:59:46;;;;;;;7.07;2.53;;;15.00;99.90;;;;;;6160586;23;20024;-71
2023/06/01 12:02:30;;;;;;;7.28;2.70;;;15.30;99.90;;;;;;6162471;23;20478;-71
2023/06/01 12:05:09;;;;;;;7.70;2.63;;;15.20;99.90;;;;;;6160459;23;20482;-72
2023/06/01 12:07:50;;;;;;;8.68;2.38;;;15.30;99.90;;;;;;6137145;23;20031;-72
2023/06/01 12:10:19;;;;;;;4.70;2.60;;;15.30;99.90;;;;;;6188540;23;20031;-71
2023/06/01 12:12:47;;;;;;;5.32;2.20;;;15.20;99.90;;;;;;6160221;23;20024;-71
2023/06/01 12:15:18;;;;;;;7.35;2.28;;;15.50;99.90;;;;;;6188931;23;20033;-72
2023/06/01 12:17:54;;;;;;;3.28;2.25;;;15.80;99.90;;;;;;6160296;23;20021;-72
2023/06/01 12:20:30;;;;;;;4.50;1.80;;;15.60;99.90;;;;;;6188513;23;20044;-71
2023/06/01 12:23:03;;;;;;;4.45;2.35;;;15.50;99.90;;;;;;6137273;23;20055;-71
2023/06/01 12:25:31;;;;;;;5.15;2.60;;;15.80;99.90;;;;;;6186161;23;20017;-71
2023/06/01 12:28:15;;;;;;;7.07;2.60;;;15.70;99.90;;;;;;6162024;23;20092;-71
2023/06/01 12:30:41;;;;;;;8.23;2.55;;;15.60;99.90;;;;;;6135678;23;20033;-71
2023/06/01 12:33:06;;;;;;;4.28;2.38;;;15.60;99.90;;;;;;6188415;23;20082;-73
2023/06/01 12:35:32;;;;;;;7.38;2.70;;;15.40;99.90;;;;;;6161272;23;20020;-71
2023/06/01 12:38:06;;;;;;;6.80;1.92;;;15.40;99.90;;;;;;6160946;23;20032;-72
2023/06/01 12:40:33;;;;;;;3.85;2.30;;;15.40;99.90;;;;;;6160793;23;20025;-73
2023/06/01 12:42:59;;;;;;;4.07;1.92;;;15.60;99.90;;;;;;6158164;23;20025;-72
2023/06/01 12:45:25;;;;;;;5.55;2.38;;;15.40;99.90;;;;;;6161625;23;20439;-72
2023/06/01 12:47:51;;;;;;;7.35;2.90;;;15.50;99.90;;;;;;6159359;23;20025;-71
2023/06/01 12:50:16;;;;;;;4.57;2.53;;;15.80;99.90;;;;;;6160997;23;20025;-71